createdAt,value
2023-04-28T00:00:19.749Z,2.20
2023-04-28T00:03:05.004Z,2.30
2023-04-28T00:05:50.535Z,2.20
2023-04-28T00:08:35.528Z,2.30
2023-04-28T00:11:21.883Z,2.00
2023-04-28T00:14:07.413Z,2.60
2023-04-28T00:16:52.828Z,2.10
2023-04-28T00:19:38.584Z,2.15
2023-04-28T00:22:23.794Z,2.20
2023-04-28T00:25:09.303Z,2.20
2023-04-28T00:27:54.597Z,2.33
2023-04-28T00:30:39.623Z,2.20
2023-04-28T00:33:25.951Z,2.20
2023-04-28T00:36:11.527Z,2.13
2023-04-28T00:38:59.309Z,2.10
2023-04-28T00:41:44.845Z,2.28
2023-04-28T00:44:29.689Z,2.38
2023-04-28T00:47:18.362Z,2.10
2023-04-28T00:50:08.854Z,2.47
2023-04-28T00:52:54.880Z,2.40
2023-04-28T00:55:40.213Z,2.22
2023-04-28T00:58:25.953Z,2.47
2023-04-28T01:01:11.149Z,2.15
2023-04-28T01:03:56.653Z,2.22
2023-04-28T01:06:42.565Z,1.88
2023-04-28T01:09:28.168Z,2.33
2023-04-28T01:12:13.365Z,2.17
2023-04-28T01:14:59.973Z,2.67
2023-04-28T01:17:46.525Z,2.30
2023-04-28T01:20:31.439Z,2.28
2023-04-28T01:23:17.695Z,2.40
2023-04-28T01:26:04.143Z,2.65
2023-04-28T01:28:49.538Z,2.60
2023-04-28T01:31:34.552Z,2.30
2023-04-28T01:34:19.797Z,2.30
2023-04-28T01:37:05.302Z,2.40
2023-04-28T01:39:50.304Z,2.00
2023-04-28T01:42:35.903Z,2.53
2023-04-28T01:45:21.237Z,2.25
2023-04-28T01:48:06.606Z,2.63
2023-04-28T01:50:51.905Z,2.22
2023-04-28T01:53:36.968Z,2.30
2023-04-28T01:56:22.297Z,2.50
2023-04-28T01:59:07.345Z,2.13
2023-04-28T02:01:52.180Z,2.20
2023-04-28T02:04:40.779Z,2.78
2023-04-28T02:07:26.114Z,2.30
2023-04-28T02:10:11.366Z,2.45
2023-04-28T02:12:56.279Z,2.53
2023-04-28T02:15:42.425Z,2.55
2023-04-28T02:18:27.391Z,2.47
2023-04-28T02:21:13.003Z,2.45
2023-04-28T02:23:58.272Z,2.30
2023-04-28T02:26:43.172Z,2.10
2023-04-28T02:29:28.295Z,2.60
2023-04-28T02:32:13.152Z,2.30
2023-04-28T02:34:58.012Z,2.75
2023-04-28T02:37:43.466Z,2.45
2023-04-28T02:40:28.607Z,2.58
2023-04-28T02:43:13.777Z,2.85
2023-04-28T02:45:58.689Z,2.25
2023-04-28T02:48:43.688Z,2.22
2023-04-28T02:51:28.637Z,2.55
2023-04-28T02:54:13.920Z,2.25
2023-04-28T02:56:59.355Z,2.70
2023-04-28T02:59:44.261Z,2.55
2023-04-28T03:02:29.789Z,2.75
2023-04-28T03:05:16.202Z,2.60
2023-04-28T03:08:01.187Z,4.20
2023-04-28T03:10:46.714Z,2.60
2023-04-28T03:13:31.944Z,2.80
2023-04-28T03:16:16.858Z,2.63
2023-04-28T03:19:02.386Z,2.45
2023-04-28T03:21:47.708Z,2.80
2023-04-28T03:24:32.897Z,2.60
2023-04-28T03:27:17.648Z,2.72
2023-04-28T03:30:02.978Z,2.33
2023-04-28T03:32:47.886Z,2.63
2023-04-28T03:35:32.686Z,2.60
2023-04-28T03:38:17.704Z,2.90
2023-04-28T03:41:02.544Z,2.47
2023-04-28T03:43:47.473Z,2.85
2023-04-28T03:46:32.344Z,3.00
2023-04-28T03:49:17.230Z,2.58
2023-04-28T03:52:04.231Z,2.58
2023-04-28T03:54:49.586Z,2.50
2023-04-28T03:57:34.887Z,2.85
2023-04-28T04:00:20.026Z,3.38
2023-04-28T04:03:05.304Z,2.60
2023-04-28T04:05:50.476Z,2.40
2023-04-28T04:08:35.664Z,2.90
2023-04-28T04:11:21.553Z,2.72
2023-04-28T04:14:07.224Z,2.67
2023-04-28T04:16:52.368Z,3.00
2023-04-28T04:19:37.886Z,2.95
2023-04-28T04:22:22.806Z,2.72
2023-04-28T04:25:07.894Z,3.08
2023-04-28T04:27:53.051Z,3.08
2023-04-28T04:30:37.960Z,2.85
2023-04-28T04:33:23.645Z,2.70
2023-04-28T04:36:09.407Z,3.15
2023-04-28T04:38:54.876Z,2.80
2023-04-28T04:41:40.471Z,2.60
2023-04-28T04:44:25.616Z,3.03
2023-04-28T04:47:11.264Z,3.53
2023-04-28T04:49:56.538Z,3.00
2023-04-28T04:52:42.262Z,3.50
2023-04-28T04:55:27.477Z,2.83
2023-04-28T04:58:12.821Z,3.03
2023-04-28T05:00:58.888Z,3.33
2023-04-28T05:03:44.203Z,3.13
2023-04-28T05:06:30.341Z,3.30
2023-04-28T05:09:15.353Z,3.08
2023-04-28T05:12:00.685Z,3.50
2023-04-28T05:14:45.975Z,3.08
2023-04-28T05:17:31.590Z,3.03
2023-04-28T05:20:17.305Z,3.67
2023-04-28T05:23:02.841Z,3.17
2023-04-28T05:25:47.675Z,3.50
2023-04-28T05:28:33.001Z,3.10
2023-04-28T05:31:18.304Z,3.30
2023-04-28T05:34:03.392Z,2.78
2023-04-28T05:36:48.965Z,3.35
2023-04-28T05:39:34.100Z,3.38
2023-04-28T05:42:19.108Z,3.75
2023-04-28T05:45:04.396Z,3.40
2023-04-28T05:47:49.466Z,3.13
2023-04-28T05:50:34.325Z,3.10
2023-04-28T05:53:19.881Z,3.63
2023-04-28T05:56:06.018Z,3.60
2023-04-28T05:58:51.257Z,3.55
2023-04-28T06:01:36.419Z,2.60
2023-04-28T06:04:21.949Z,3.45
2023-04-28T06:07:08.037Z,3.35
2023-04-28T06:09:53.417Z,3.47
2023-04-28T06:12:38.578Z,3.55
2023-04-28T06:15:23.876Z,3.03
2023-04-28T06:18:09.671Z,3.97
2023-04-28T06:20:55.172Z,3.30
2023-04-28T06:23:42.082Z,3.63
2023-04-28T06:26:27.340Z,3.65
2023-04-28T06:29:12.220Z,3.47
2023-04-28T06:31:57.826Z,3.65
2023-04-28T06:34:43.345Z,3.42
2023-04-28T06:37:29.066Z,3.67
2023-04-28T06:40:13.842Z,3.78
2023-04-28T06:42:59.146Z,3.70
2023-04-28T06:45:44.492Z,3.38
2023-04-28T06:48:30.218Z,3.90
2023-04-28T06:51:15.072Z,3.42
2023-04-28T06:54:00.280Z,3.70
2023-04-28T06:56:45.757Z,3.65
2023-04-28T06:59:31.454Z,3.67
2023-04-28T07:02:16.705Z,4.40
2023-04-28T07:05:02.672Z,3.70
2023-04-28T07:07:47.588Z,4.25
2023-04-28T07:10:32.979Z,4.13
2023-04-28T07:13:17.798Z,4.55
2023-04-28T07:16:04.638Z,5.47
2023-04-28T07:18:50.057Z,4.63
2023-04-28T07:21:35.321Z,4.40
2023-04-28T07:24:20.658Z,4.75
2023-04-28T07:27:06.658Z,4.97
2023-04-28T07:29:51.632Z,5.38
2023-04-28T07:32:36.792Z,5.65
2023-04-28T07:35:22.021Z,5.70
2023-04-28T07:38:06.969Z,5.63
2023-04-28T07:43:37.232Z,5.28
2023-04-28T07:46:22.839Z,5.13
2023-04-28T07:49:08.281Z,5.38
2023-04-28T07:51:54.889Z,6.03
2023-04-28T07:54:39.769Z,5.88
2023-04-28T07:57:25.950Z,5.78
2023-04-28T08:00:12.308Z,5.80
2023-04-28T08:02:57.903Z,5.20
2023-04-28T08:05:45.397Z,5.97
2023-04-28T08:08:31.007Z,5.70
2023-04-28T08:11:16.176Z,5.43
2023-04-28T08:14:04.021Z,5.95
2023-04-28T08:16:49.348Z,6.30
2023-04-28T08:19:34.728Z,5.30
2023-04-28T08:22:19.645Z,5.80
2023-04-28T08:25:05.305Z,6.25
2023-04-28T08:27:50.368Z,6.03
2023-04-28T08:30:36.362Z,5.45
2023-04-28T08:33:21.365Z,5.82
2023-04-28T08:36:06.948Z,6.05
2023-04-28T08:38:52.711Z,5.88
2023-04-28T08:41:39.957Z,6.53
2023-04-28T08:44:24.881Z,5.80
2023-04-28T08:47:13.816Z,6.18
2023-04-28T08:50:03.397Z,6.25
2023-04-28T08:52:48.922Z,5.43
2023-04-28T08:55:35.744Z,6.53
2023-04-28T08:58:23.784Z,6.32
2023-04-28T09:01:08.795Z,6.45
2023-04-28T09:03:55.108Z,5.97
2023-04-28T09:06:40.737Z,6.82
2023-04-28T09:09:27.426Z,6.65
2023-04-28T09:12:13.945Z,6.00
2023-04-28T09:15:00.347Z,5.75
2023-04-28T09:17:52.350Z,6.32
2023-04-28T09:20:37.205Z,6.40
2023-04-28T09:23:23.097Z,6.03
2023-04-28T09:26:08.170Z,5.70
2023-04-28T09:29:13.258Z,6.32
2023-04-28T09:32:21.544Z,5.93
2023-04-28T09:35:07.861Z,5.80
2023-04-28T09:37:59.059Z,5.55
2023-04-28T09:40:55.882Z,6.32
2023-04-28T09:43:41.764Z,5.65
2023-04-28T09:46:29.150Z,6.38
2023-04-28T09:49:14.332Z,5.90
2023-04-28T09:52:13.468Z,5.38
2023-04-28T09:54:59.152Z,6.35
2023-04-28T09:57:45.426Z,5.70
2023-04-28T10:00:34.825Z,6.45
2023-04-28T10:03:27.588Z,5.57
2023-04-28T10:06:14.648Z,6.20
2023-04-28T10:09:00.809Z,6.40
2023-04-28T10:11:46.036Z,5.57
2023-04-28T10:14:32.019Z,6.03
2023-04-28T10:17:18.053Z,6.13
2023-04-28T10:20:03.390Z,6.00
2023-04-28T10:23:28.786Z,6.72
2023-04-28T10:26:15.309Z,6.05
2023-04-28T10:29:00.696Z,6.90
2023-04-28T10:32:25.909Z,5.68
2023-04-28T10:35:36.448Z,6.03
2023-04-28T10:38:21.891Z,5.60
2023-04-28T10:41:31.684Z,7.68
2023-04-28T10:44:28.897Z,5.82
2023-04-28T10:47:13.866Z,4.90
2023-04-28T10:50:09.197Z,5.70
2023-04-28T10:52:54.168Z,5.75
2023-04-28T10:55:42.616Z,6.63
2023-04-28T10:58:32.397Z,5.70
2023-04-28T11:01:21.171Z,5.38
2023-04-28T11:04:17.135Z,6.40
2023-04-28T11:07:11.173Z,5.63
2023-04-28T11:09:56.373Z,6.05
2023-04-28T11:13:25.115Z,6.47
2023-04-28T11:16:10.374Z,6.40
2023-04-28T11:19:05.524Z,6.47
2023-04-28T11:21:52.668Z,6.85
2023-04-28T11:24:38.169Z,5.90
2023-04-28T11:27:33.670Z,6.70
2023-04-28T11:30:23.124Z,6.15
2023-04-28T11:33:09.842Z,7.40
2023-04-28T11:35:56.426Z,6.05
2023-04-28T11:38:44.886Z,6.38
2023-04-28T11:41:30.357Z,6.53
2023-04-28T11:44:16.243Z,6.50
2023-04-28T11:47:03.376Z,6.78
2023-04-28T11:55:19.604Z,6.90
2023-04-28T11:58:27.920Z,6.55
2023-04-28T12:01:16.319Z,6.28
2023-04-28T12:04:01.809Z,5.97
2023-04-28T12:06:48.202Z,6.88
2023-04-28T12:09:35.617Z,6.55
2023-04-28T12:12:49.816Z,6.40
2023-04-28T12:15:40.879Z,5.85
2023-04-28T12:18:26.695Z,7.00
2023-04-28T12:21:21.587Z,6.95
2023-04-28T12:24:21.423Z,6.65
2023-04-28T12:27:26.445Z,6.80
2023-04-28T12:30:20.692Z,6.45
2023-04-28T12:33:05.863Z,6.88
2023-04-28T12:35:53.992Z,6.88
2023-04-28T12:38:47.604Z,6.47
2023-04-28T12:44:18.745Z,6.55
2023-04-28T12:47:09.516Z,6.20
2023-04-28T12:49:55.012Z,6.45
2023-04-28T12:52:42.184Z,6.80
2023-04-28T12:55:27.137Z,6.85
2023-04-28T12:58:12.636Z,7.22
2023-04-28T13:00:57.826Z,7.07
2023-04-28T13:03:45.607Z,6.68
2023-04-28T13:06:31.212Z,7.53
2023-04-28T13:09:16.804Z,6.85
2023-04-28T13:12:03.426Z,6.30
2023-04-28T13:14:50.669Z,7.07
2023-04-28T13:17:36.035Z,6.78
2023-04-28T13:20:21.457Z,7.13
2023-04-28T13:23:06.505Z,7.80
2023-04-28T13:25:52.428Z,6.97
2023-04-28T13:28:37.627Z,7.32
2023-04-28T13:31:22.982Z,7.45
2023-04-28T13:34:10.043Z,6.78
2023-04-28T13:36:55.616Z,7.47
2023-04-28T13:39:42.506Z,6.15
2023-04-28T13:45:16.880Z,6.78
2023-04-28T13:48:03.914Z,7.13
2023-04-28T13:50:51.189Z,6.10
2023-04-28T13:56:23.652Z,5.72
2023-04-28T13:59:08.644Z,5.85
2023-04-28T14:01:53.742Z,6.45
2023-04-28T14:04:40.418Z,5.80
2023-04-28T14:07:26.909Z,6.53
2023-04-28T14:10:13.250Z,7.18
2023-04-28T14:12:59.517Z,6.93
2023-04-28T14:15:57.915Z,7.28
2023-04-28T14:18:44.270Z,7.28
2023-04-28T14:21:29.133Z,6.28
2023-04-28T14:24:15.194Z,6.03
2023-04-28T14:27:00.080Z,7.18
2023-04-28T14:29:48.173Z,7.43
2023-04-28T14:32:33.428Z,6.70
2023-04-28T14:35:20.814Z,7.00
2023-04-28T14:38:05.796Z,7.22
2023-04-28T14:40:53.028Z,7.47
2023-04-28T14:43:38.306Z,7.18
2023-04-28T14:46:23.757Z,7.35
2023-04-28T14:49:09.342Z,6.75
2023-04-28T14:51:54.325Z,7.43
2023-04-28T14:54:39.829Z,6.75
2023-04-28T14:57:26.303Z,7.35
2023-04-28T15:00:12.154Z,7.05
2023-04-28T15:02:57.844Z,7.30
2023-04-28T15:05:43.319Z,7.43
2023-04-28T15:08:30.036Z,6.78
2023-04-28T15:11:15.807Z,7.43
2023-04-28T15:14:00.878Z,6.90
2023-04-28T15:16:47.630Z,8.32
2023-04-28T15:19:33.959Z,6.80
2023-04-28T15:22:19.044Z,7.63
2023-04-28T15:25:04.567Z,7.20
2023-04-28T15:27:50.229Z,8.00
2023-04-28T15:30:35.132Z,7.15
2023-04-28T15:33:20.500Z,7.95
2023-04-28T15:36:05.753Z,8.25
2023-04-28T15:38:52.292Z,8.10
2023-04-28T15:41:37.073Z,7.95
2023-04-28T15:44:22.224Z,7.70
2023-04-28T15:47:07.304Z,7.25
2023-04-28T15:49:52.486Z,6.65
2023-04-28T15:52:45.936Z,7.57
2023-04-28T15:58:17.379Z,8.00
2023-04-28T16:01:03.067Z,7.85
2023-04-28T16:03:48.732Z,8.20
2023-04-28T16:06:33.595Z,7.00
2023-04-28T16:09:19.457Z,7.45
2023-04-28T16:12:05.031Z,7.90
2023-04-28T16:14:53.526Z,7.88
2023-04-28T16:17:38.913Z,7.85
2023-04-28T16:20:24.031Z,8.07
2023-04-28T16:23:13.757Z,8.48
2023-04-28T16:25:59.808Z,8.13
2023-04-28T16:28:44.911Z,8.20
2023-04-28T16:31:31.446Z,8.35
2023-04-28T16:34:16.550Z,8.80
2023-04-28T16:37:03.128Z,9.73
2023-04-28T16:39:48.471Z,9.52
2023-04-28T16:42:34.085Z,9.13
2023-04-28T16:45:19.199Z,9.52
2023-04-28T16:48:05.679Z,8.82
2023-04-28T16:50:50.602Z,9.27
2023-04-28T16:53:36.165Z,9.85
2023-04-28T16:56:21.729Z,9.75
2023-04-28T16:59:07.148Z,9.93
2023-04-28T17:01:52.670Z,8.98
2023-04-28T17:04:39.032Z,9.95
2023-04-28T17:07:25.624Z,10.15
2023-04-28T17:10:10.947Z,10.60
2023-04-28T17:12:55.893Z,11.65
2023-04-28T17:15:42.823Z,11.48
2023-04-28T17:18:28.025Z,12.40
2023-04-28T17:21:14.943Z,12.32
2023-04-28T17:24:00.402Z,12.32
2023-04-28T17:26:46.022Z,12.25
2023-04-28T17:29:32.327Z,13.18
2023-04-28T17:32:18.788Z,12.95
2023-04-28T17:35:07.394Z,13.65
2023-04-28T17:37:52.174Z,13.38
2023-04-28T17:40:37.546Z,13.50
2023-04-28T17:43:23.979Z,16.88
2023-04-28T17:46:09.720Z,54.10
2023-04-28T17:48:55.971Z,37.70
2023-04-28T17:51:41.262Z,15.40
2023-04-28T17:54:26.640Z,16.88
2023-04-28T17:57:12.550Z,15.50
2023-04-28T18:03:04.417Z,15.80
2023-04-28T18:05:50.575Z,17.50
2023-04-28T18:08:37.060Z,17.50
2023-04-28T18:11:23.456Z,18.80
2023-04-28T18:14:08.454Z,17.90
2023-04-28T18:16:58.586Z,19.45
2023-04-28T18:19:43.916Z,17.45
2023-04-28T18:22:28.771Z,18.48
2023-04-28T18:25:17.758Z,18.50
2023-04-28T18:28:05.250Z,19.88
2023-04-28T18:33:35.488Z,19.55
2023-04-28T18:36:23.470Z,19.65
2023-04-28T18:39:09.265Z,20.80
2023-04-28T18:41:57.932Z,20.58
2023-04-28T18:44:43.692Z,20.90
2023-04-28T18:47:29.236Z,21.25
2023-04-28T18:50:17.454Z,20.63
2023-04-28T18:53:05.701Z,20.83
2023-04-28T18:56:00.372Z,21.83
2023-04-28T18:58:47.583Z,21.05
2023-04-28T19:01:32.420Z,22.73
2023-04-28T19:04:17.864Z,20.35
2023-04-28T19:07:03.015Z,21.98
2023-04-28T19:09:48.611Z,21.00
2023-04-28T19:12:34.828Z,42.45
2023-04-28T19:15:19.717Z,48.28
2023-04-28T19:18:07.030Z,48.83
2023-04-28T19:23:45.059Z,21.30
2023-04-28T19:26:37.032Z,21.70
2023-04-28T19:29:23.241Z,19.98
2023-04-28T19:32:09.977Z,21.17
2023-04-28T19:34:55.425Z,20.13
2023-04-28T19:37:40.558Z,21.85
2023-04-28T19:40:28.705Z,22.80
2023-04-28T19:43:15.995Z,23.30
2023-04-28T19:46:02.756Z,21.25
2023-04-28T19:48:48.967Z,20.83
2023-04-28T19:51:35.556Z,21.20
2023-04-28T19:54:20.781Z,20.60
2023-04-28T19:57:05.927Z,21.98
2023-04-28T19:59:51.395Z,21.33
2023-04-28T20:02:39.270Z,21.52
2023-04-28T20:05:25.690Z,21.42
2023-04-28T20:08:13.594Z,23.17
2023-04-28T20:10:58.774Z,21.17
2023-04-28T20:13:46.790Z,20.90
2023-04-28T20:16:34.660Z,20.55
2023-04-28T20:19:19.982Z,21.67
2023-04-28T20:22:08.331Z,21.65
2023-04-28T20:24:54.197Z,21.70
2023-04-28T20:27:39.175Z,22.25
2023-04-28T20:30:24.381Z,21.10
2023-04-28T20:33:10.575Z,20.63
2023-04-28T20:35:56.341Z,22.02
2023-04-28T20:38:43.372Z,21.85
2023-04-28T20:41:29.607Z,21.58
2023-04-28T20:44:14.701Z,21.80
2023-04-28T20:47:02.310Z,22.60
2023-04-28T20:49:48.717Z,21.17
2023-04-28T20:52:35.968Z,22.88
2023-04-28T20:58:08.003Z,21.40
2023-04-28T21:00:53.376Z,21.58
2023-04-28T21:03:38.921Z,20.70
2023-04-28T21:06:27.626Z,20.77
2023-04-28T21:09:13.846Z,20.90
2023-04-28T21:11:59.534Z,22.60
2023-04-28T21:14:45.074Z,22.95
2023-04-28T21:17:30.497Z,20.02
2023-04-28T21:20:15.597Z,22.80
2023-04-28T21:23:02.400Z,21.42
2023-04-28T21:25:47.761Z,21.75
2023-04-28T21:28:36.738Z,21.33
2023-04-28T21:31:21.733Z,21.58
2023-04-28T21:34:07.867Z,23.77
2023-04-28T21:36:52.722Z,22.77
2023-04-28T21:39:37.646Z,23.20
2023-04-28T21:42:22.533Z,21.77
2023-04-28T21:45:09.548Z,22.95
2023-04-28T21:50:42.125Z,21.08
2023-04-28T21:53:28.460Z,21.70
2023-04-28T21:56:17.089Z,20.85
2023-04-28T21:59:03.011Z,22.85
2023-04-28T22:01:49.039Z,22.55
2023-04-28T22:04:34.465Z,22.08
2023-04-28T22:07:21.008Z,21.88
2023-04-28T22:10:08.274Z,21.65
2023-04-28T22:12:54.026Z,22.25
2023-04-28T22:15:38.935Z,22.30
2023-04-28T22:18:24.273Z,21.10
2023-04-28T22:21:11.036Z,22.67
2023-04-28T22:23:56.588Z,21.67
2023-04-28T22:26:42.717Z,21.88
2023-04-28T22:29:29.047Z,22.67
2023-04-28T22:32:13.867Z,20.70
2023-04-28T22:34:58.673Z,20.42
2023-04-28T22:37:43.508Z,20.52
2023-04-28T22:40:29.347Z,20.83
2023-04-28T22:43:14.200Z,21.20
2023-04-28T22:45:59.573Z,18.90
2023-04-28T22:48:45.468Z,21.48
2023-04-28T22:51:31.393Z,20.25
2023-04-28T22:54:16.644Z,20.40
2023-04-28T22:57:03.713Z,20.42
2023-04-28T22:59:49.011Z,19.15
2023-04-28T23:02:34.496Z,19.23
2023-04-28T23:05:19.580Z,19.83
2023-04-28T23:08:05.154Z,18.52
2023-04-28T23:10:50.994Z,17.65
2023-04-28T23:13:35.915Z,20.13
2023-04-28T23:16:22.594Z,19.20
2023-04-28T23:19:08.591Z,18.23
2023-04-28T23:21:54.669Z,19.13
2023-04-28T23:24:39.936Z,20.13
2023-04-28T23:27:25.154Z,19.88
2023-04-28T23:30:10.774Z,18.27
2023-04-28T23:32:56.417Z,17.08
2023-04-28T23:35:41.921Z,17.13
2023-04-28T23:38:27.389Z,16.70
2023-04-28T23:41:12.376Z,15.57
2023-04-28T23:43:57.382Z,15.93
2023-04-28T23:46:42.417Z,15.07
2023-04-28T23:49:28.015Z,13.13
2023-04-28T23:52:13.202Z,14.40
2023-04-28T23:54:58.660Z,12.93
2023-04-28T23:57:43.449Z,12.35
